Time;durP1;ratioP1;P1;durP2;ratioP2;P2;SDS_P1;SDS_P2;PMS_P1;PMS_P2;Temp;Humidity;BMP_temperature;BMP_pressure;BME280_temperature;BME280_humidity;BME280_pressure;Samples;Min_cycle;Max_cycle;Signal;HPM_P1;HPM_P2
2023/04/08 00:00:00;;;;;;;;;;;;;;;;;;;;;
2023/04/08 00:03:44;;;;;;;33.90;21.30;;;;;;;5.89;98.22;100790.33;105036;1257;69065;-57
2023/04/08 00:07:34;;;;;;;37.10;23.30;;;;;;;5.93;98.38;100797.40;104999;1262;69185;-57
2023/04/08 00:11:06;;;;;;;35.30;21.30;;;;;;;5.97;98.31;100797.02;104653;1265;72979;-58
2023/04/08 00:14:48;;;;;;;;;;;;;;;;;;;;;
2023/04/08 00:18:08;;;;;;;32.00;20.40;;;;;;;6.10;98.56;100810.41;104556;1260;73122;-59
2023/04/08 00:21:48;;;;;;;30.50;19.60;;;;;;;6.14;98.69;100812.27;104719;1265;69219;-60
2023/04/08 00:25:10;;;;;;;;;;;;;;;;;;;;;
2023/04/08 00:28:59;;;;;;;29.10;17.90;;;;;;;6.22;98.34;100824.13;104651;1262;73683;-59
2023/04/08 00:32:38;;;;;;;29.90;17.60;;;;;;;6.26;98.43;100828.06;104684;1264;83255;-61
2023/04/08 00:36:19;;;;;;;29.60;17.60;;;;;;;6.29;97.99;100827.35;104899;1260;73721;-57
2023/04/08 00:40:03;;;;;;;24.80;15.00;;;;;;;6.26;97.97;100833.11;105100;1257;69192;-62
2023/04/08 00:43:23;;;;;;;;;;;;;;;;;;;;;
2023/04/08 00:50:49;;;;;;;25.40;15.20;;;;;;;6.20;97.60;100845.50;104700;1266;83643;-59
2023/04/08 00:54:29;;;;;;;20.70;14.20;;;;;;;6.16;97.49;100852.31;104376;1262;73771;-58
2023/04/08 00:58:10;;;;;;;;;;;;;;;;;;;;;
2023/04/08 01:02:05;;;;;;;;;;;;;;;;;;;;;
2023/04/08 01:06:05;;;;;;;;;;;;;;;;;;;;;
2023/04/08 01:09:54;;;;;;;;;;;;;;;;;;;;;
2023/04/08 01:13:32;;;;;;;20.40;13.40;;;;;;;6.00;96.96;100859.08;104735;1267;73385;-58
2023/04/08 01:21:03;;;;;;;22.30;13.30;;;;;;;5.97;97.08;100866.74;104147;1268;69232;-57
2023/04/08 01:24:59;;;;;;;21.10;14.20;;;;;;;5.92;97.00;100865.56;104064;1270;71449;-59
2023/04/08 01:29:02;;;;;;;20.10;14.10;;;;;;;5.91;97.29;100870.27;101824;1294;600713;-57
2023/04/08 01:32:53;;;;;;;21.60;14.80;;;;;;;5.85;97.31;100870.48;104593;1267;69143;-60
2023/04/08 01:40:06;;;;;;;21.50;14.90;;;;;;;5.88;97.32;100870.81;104445;1268;71462;-62
2023/04/08 01:43:31;;;;;;;18.30;12.70;;;;;;;5.87;97.36;100873.23;100526;1270;5411401;-58
2023/04/08 01:47:19;;;;;;;21.30;14.30;;;;;;;5.89;97.61;100874.42;104520;1265;73183;-58
2023/04/08 01:50:52;;;;;;;21.30;14.10;;;;;;;5.92;97.55;100876.66;104673;1265;69090;-58
2023/04/08 01:54:08;;;;;;;;;;;;;;;;;;;;;
2023/04/08 01:57:32;;;;;;;19.60;13.10;;;;;;;5.98;97.42;100882.87;104549;1266;71655;-57
2023/04/08 02:01:01;;;;;;;;;;;;;;;;;;;;;
2023/04/08 02:04:33;;;;;;;21.40;14.10;;;;;;;6.00;97.39;100885.61;104605;1265;72875;-62
2023/04/08 02:07:54;;;;;;;;;;;;;;;;;;;;;
2023/04/08 02:10:57;;;;;;;26.20;16.30;;;;;;;5.98;97.46;100892.58;104585;1265;69432;-61
2023/04/08 02:14:46;;;;;;;23.10;14.90;;;;;;;5.97;97.34;100894.33;104738;1267;72320;-61
2023/04/08 02:22:23;;;;;;;21.20;14.30;;;;;;;5.96;97.33;100901.45;104088;1272;73842;-59
2023/04/08 02:25:20;;;;;;;25.20;15.10;;;;;;;5.98;97.31;100902.99;103993;1273;69399;-58
2023/04/08 02:29:03;;;;;;;22.20;14.40;;;;;;;5.98;97.40;100910.45;104170;1276;69229;-61
2023/04/08 02:36:11;;;;;;;26.60;15.10;;;;;;;5.97;97.35;100918.10;104024;1276;83449;-58
2023/04/08 02:39:43;;;;;;;23.80;15.30;;;;;;;5.99;97.33;100920.33;103853;1276;73428;-62
2023/04/08 02:43:08;;;;;;;22.60;14.40;;;;;;;5.98;97.10;100924.66;104054;1276;69498;-56
2023/04/08 02:46:40;;;;;;;;;;;;;;;;;;;;;
2023/04/08 02:50:18;;;;;;;20.20;13.90;;;;;;;6.01;97.33;100930.20;103852;1274;73411;-58
2023/04/08 02:53:37;;;;;;;22.70;15.20;;;;;;;6.00;97.35;100932.11;103823;1274;83452;-56
2023/04/08 02:57:01;;;;;;;24.10;15.30;;;;;;;5.97;97.06;100939.08;103799;1274;73741;-59
2023/04/08 03:00:29;;;;;;;23.60;15.20;;;;;;;5.95;96.95;100943.80;104658;1260;69104;-60
2023/04/08 03:07:30;;;;;;;22.80;13.50;;;;;;;5.85;96.24;100951.65;104726;1262;72252;-56
2023/04/08 03:11:10;;;;;;;21.20;13.90;;;;;;;5.78;95.71;100952.41;104702;1267;83409;-60
2023/04/08 03:14:24;;;;;;;22.40;13.80;;;;;;;5.71;95.58;100955.59;104703;1266;73719;-56
2023/04/08 03:17:42;;;;;;;21.00;12.90;;;;;;;5.67;95.57;100960.30;104862;1262;69273;-57
2023/04/08 03:21:15;;;;;;;22.10;13.40;;;;;;;5.62;95.58;100962.59;104757;1262;69083;-58
2023/04/08 03:24:46;;;;;;;21.70;13.80;;;;;;;5.57;95.73;100960.88;104684;1267;72387;-56
2023/04/08 03:27:58;;;;;;;19.70;13.20;;;;;;;5.50;95.42;100962.69;104546;1266;83436;-54
2023/04/08 03:31:20;;;;;;;;;;;;;;;;;;;;;
2023/04/08 03:34:52;;;;;;;;;;;;;;;;;;;;;
2023/04/08 03:38:23;;;;;;;16.10;11.40;;;;;;;5.38;95.12;100970.90;104779;1265;69188;-60
2023/04/08 03:42:05;;;;;;;;;;;;;;;;;;;;;
2023/04/08 03:45:40;;;;;;;17.40;11.10;;;;;;;5.25;95.01;100982.77;104662;1267;83494;-57
2023/04/08 03:49:00;;;;;;;;;;;;;;;;;;;;;
2023/04/08 03:52:35;;;;;;;16.60;11.40;;;;;;;5.17;94.98;100990.79;104768;1262;69144;-59
2023/04/08 03:55:57;;;;;;;19.50;12.70;;;;;;;5.11;95.11;100994.63;104743;1262;69188;-60
2023/04/08 03:59:39;;;;;;;18.00;12.50;;;;;;;5.08;95.16;100998.45;104692;1262;73386;-56
2023/04/08 04:03:11;;;;;;;17.00;11.70;;;;;;;5.04;94.92;101007.31;104762;1265;83880;-55
2023/04/08 04:07:02;;;;;;;15.40;11.60;;;;;;;4.98;94.41;101016.52;104679;1259;73054;-56
2023/04/08 04:10:37;;;;;;;;;;;;;;;;;;;;;
2023/04/08 04:14:08;;;;;;;;;;;;;;;;;;;;;
2023/04/08 04:17:57;;;;;;;;;;;;;;;;;;;;;
2023/04/08 04:21:34;;;;;;;;;;;;;;;;;;;;;
2023/04/08 04:25:27;;;;;;;13.90;9.60;;;;;;;4.84;94.51;101046.34;104776;1265;73787;-58
2023/04/08 04:29:17;;;;;;;17.00;11.00;;;;;;;4.81;94.47;101057.11;104848;1261;69083;-55
2023/04/08 04:32:45;;;;;;;17.80;11.70;;;;;;;4.76;94.42;101063.34;104864;1265;69128;-57
2023/04/08 04:36:14;;;;;;;17.10;11.90;;;;;;;4.71;94.40;101069.24;104834;1262;73277;-60
2023/04/08 04:39:42;;;;;;;21.30;12.80;;;;;;;4.65;94.05;101073.58;104819;1265;83329;-56
2023/04/08 04:47:17;;;;;;;;;;;;;;;;;;;;;
2023/04/08 04:50:50;;;;;;;17.00;11.70;;;;;;;4.49;93.90;101082.27;104803;1262;69213;-55
2023/04/08 04:54:39;;;;;;;19.10;11.90;;;;;;;4.48;93.76;101079.32;104844;1259;73299;-56
2023/04/08 04:58:00;;;;;;;;;;;;;;;;;;;;;
2023/04/08 05:01:29;;;;;;;18.50;13.20;;;;;;;4.34;93.25;101081.92;104756;1267;73769;-59
2023/04/08 05:04:45;;;;;;;18.80;13.10;;;;;;;4.28;93.49;101087.63;104893;1265;69309;-58
2023/04/08 05:08:00;;;;;;;18.50;12.40;;;;;;;4.26;93.48;101091.95;104990;1260;69101;-56
2023/04/08 05:11:01;;;;;;;;;;;;;;;;;;;;;
2023/04/08 05:14:10;;;;;;;17.60;12.30;;;;;;;4.23;93.76;101093.01;104782;1267;82413;-53
2023/04/08 05:17:05;;;;;;;18.00;11.90;;;;;;;4.23;93.63;101098.02;104889;1266;72718;-55
2023/04/08 05:20:17;;;;;;;18.90;12.00;;;;;;;4.23;93.64;101105.45;105209;1262;69149;-56
2023/04/08 05:23:49;;;;;;;19.10;12.10;;;;;;;4.27;93.86;101115.33;104888;1260;69148;-57
2023/04/08 05:27:24;;;;;;;;;;;;;;;;;;;;;
2023/04/08 05:30:34;;;;;;;;;;;;;;;;;;;;;
2023/04/08 05:33:51;;;;;;;;;;;;;;;;;;;;;
2023/04/08 05:36:54;;;;;;;18.10;12.00;;;;;;;4.41;93.98;101139.73;104776;1262;69079;-54
2023/04/08 05:40:23;;;;;;;;;;;;;;;;;;;;;
2023/04/08 05:43:32;;;;;;;;;;;;;;;;;;;;;
2023/04/08 05:46:29;;;;;;;18.90;12.80;;;;;;;4.25;93.38;101150.79;105067;1262;83981;-57
2023/04/08 05:50:06;;;;;;;17.70;11.90;;;;;;;4.22;93.11;101154.94;104779;1263;73761;-56
2023/04/08 05:53:31;;;;;;;15.20;11.00;;;;;;;4.19;93.21;101156.31;105084;1265;69083;-58
2023/04/08 05:57:09;;;;;;;;;;;;;;;;;;;;;
2023/04/08 06:00:22;;;;;;;15.70;11.80;;;;;;;4.10;92.85;101171.86;104746;1262;73507;-58
2023/04/08 06:03:34;;;;;;;17.70;11.60;;;;;;;4.11;93.30;101172.21;104836;1262;82312;-60
2023/04/08 06:06:56;;;;;;;16.50;11.80;;;;;;;4.11;93.28;101180.52;104803;1265;71903;-59
2023/04/08 06:10:06;;;;;;;17.10;12.30;;;;;;;4.08;92.99;101185.70;104790;1262;69267;-49
2023/04/08 06:12:51;;;;;;;17.30;11.80;;;;;;;4.09;93.15;101187.60;104761;1266;69823;-51
2023/04/08 06:15:28;;;;;;;15.40;10.90;;;;;;;4.07;92.55;101184.83;104833;1265;71365;-50
2023/04/08 06:18:39;;;;;;;;;;;;;;;;;;;;;
2023/04/08 06:21:51;;;;;;;14.60;10.40;;;;;;;4.02;92.01;101195.20;104687;1262;72811;-52
2023/04/08 06:24:53;;;;;;;16.10;10.70;;;;;;;4.03;92.22;101197.27;104775;1262;69787;-54
2023/04/08 06:27:54;;;;;;;15.00;10.50;;;;;;;4.06;92.29;101205.57;104747;1262;69911;-49
2023/04/08 06:30:44;;;;;;;17.60;11.80;;;;;;;4.07;91.99;101209.55;104795;1262;73424;-53
2023/04/08 06:33:41;;;;;;;;;;;;;;;;;;;;;
2023/04/08 06:36:44;;;;;;;;;;;;;;;;;;;;;
2023/04/08 06:39:36;;;;;;;16.70;12.00;;;;;;;4.11;92.09;101212.52;104756;1263;69088;-52
2023/04/08 06:43:09;;;;;;;17.90;12.00;;;;;;;4.12;91.73;101212.69;104745;1262;69925;-52
2023/04/08 06:45:50;;;;;;;15.40;11.20;;;;;;;4.14;91.46;101215.46;104680;1266;74445;-52
2023/04/08 06:48:52;;;;;;;16.50;12.20;;;;;;;4.15;91.64;101220.14;104798;1267;82792;-53
2023/04/08 06:52:02;;;;;;;;;;;;;;;;;;;;;
2023/04/08 06:55:00;;;;;;;15.70;10.90;;;;;;;4.24;91.27;101225.19;104759;1267;70002;-52
2023/04/08 06:58:03;;;;;;;;;;;;;;;;;;;;;
2023/04/08 07:01:10;;;;;;;16.60;12.40;;;;;;;4.32;91.78;101229.52;104945;1267;72081;-50
2023/04/08 07:04:22;;;;;;;;;;;;;;;;;;;;;
2023/04/08 07:07:23;;;;;;;14.90;11.20;;;;;;;4.50;91.81;101238.54;104855;1263;73683;-49
2023/04/08 07:10:14;;;;;;;15.70;11.50;;;;;;;4.57;91.75;101239.23;104767;1262;69915;-53
2023/04/08 07:13:18;;;;;;;15.30;11.30;;;;;;;4.64;91.53;101247.04;104678;1268;70641;-52
2023/04/08 07:16:14;;;;;;;17.40;11.80;;;;;;;4.66;91.32;101252.75;104733;1262;74205;-54
2023/04/08 07:19:07;;;;;;;15.30;10.70;;;;;;;4.72;91.37;101258.30;104760;1265;83276;-49
2023/04/08 07:22:22;;;;;;;;;;;;;;;;;;;;;
2023/04/08 07:25:38;;;;;;;;;;;;;;;;;;;;;
2023/04/08 07:28:36;;;;;;;16.90;12.20;;;;;;;4.69;90.43;101270.59;104809;1267;69085;-50
2023/04/08 07:31:25;;;;;;;16.70;11.50;;;;;;;4.66;90.23;101271.63;104787;1262;74134;-53
2023/04/08 07:34:27;;;;;;;15.90;11.30;;;;;;;4.64;89.91;101274.38;104820;1265;83285;-52
2023/04/08 07:37:19;;;;;;;15.90;10.90;;;;;;;4.69;90.13;101276.83;104755;1263;73864;-52
2023/04/08 07:40:05;;;;;;;17.60;11.80;;;;;;;4.73;89.81;101270.77;104694;1267;69200;-53
2023/04/08 07:42:48;;;;;;;14.70;10.90;;;;;;;4.77;89.74;101277.52;104763;1267;69695;-54
2023/04/08 07:45:43;;;;;;;15.20;10.60;;;;;;;4.79;89.32;101276.66;104739;1262;74011;-53
2023/04/08 07:48:35;;;;;;;;;;;;;;;4.81;89.02;101280.29;104770;1261;83550;-53
2023/04/08 07:51:37;;;;;;;16.00;10.70;;;;;;;4.82;89.15;101283.41;104782;1266;74044;-51
2023/04/08 07:54:39;;;;;;;16.20;11.50;;;;;;;4.87;89.08;101285.66;104803;1262;69234;-53
2023/04/08 07:57:26;;;;;;;16.20;11.90;;;;;;;4.88;88.71;101286.37;104723;1262;69017;-51
2023/04/08 08:00:24;;;;;;;13.90;10.30;;;;;;;4.91;88.71;101289.30;104776;1263;73273;-51
2023/04/08 08:03:34;;;;;;;15.80;10.50;;;;;;;4.97;88.27;101288.96;104742;1266;83559;-53
2023/04/08 08:06:38;;;;;;;;;;;;;;;;;;;;;
2023/04/08 08:09:19;;;;;;;11.60;9.30;;;;;;;5.22;88.65;101296.75;104771;1265;69178;-57
2023/04/08 08:12:16;;;;;;;11.80;9.00;;;;;;;5.34;88.29;101300.05;104825;1262;69135;-57
2023/04/08 08:15:07;;;;;;;13.80;10.00;;;;;;;5.46;87.98;101298.46;104829;1268;72422;-57
2023/04/08 08:18:06;;;;;;;13.30;10.00;;;;;;;5.59;88.09;101297.73;104785;1265;83446;-57
2023/04/08 08:21:00;;;;;;;15.40;10.10;;;;;;;5.68;87.78;101296.85;104793;1265;72730;-55
2023/04/08 08:23:58;;;;;;;13.60;9.90;;;;;;;5.76;87.70;101297.02;104842;1262;69090;-56
2023/04/08 08:26:45;;;;;;;12.10;9.80;;;;;;;5.79;87.56;101296.30;104956;1265;69201;-57
2023/04/08 08:29:41;;;;;;;13.60;10.00;;;;;;;5.84;86.89;101304.09;105047;1262;74040;-56
2023/04/08 08:32:40;;;;;;;11.90;9.00;;;;;;;5.84;86.60;101303.05;104933;1262;82457;-57
2023/04/08 08:35:36;;;;;;;11.80;8.40;;;;;;;5.90;86.57;101305.27;104830;1263;73745;-57
2023/04/08 08:38:20;;;;;;;12.30;9.30;;;;;;;5.95;86.37;101309.63;104861;1264;69056;-57
2023/04/08 08:41:07;;;;;;;11.70;9.50;;;;;;;6.01;86.20;101307.37;104816;1262;69140;-53
2023/04/08 08:44:08;;;;;;;13.70;9.20;;;;;;;6.05;85.68;101313.42;104783;1264;74117;-55
2023/04/08 08:46:52;;;;;;;;;;;;;;;6.05;85.53;101311.34;104848;1262;83227;-58
2023/04/08 08:49:57;;;;;;;13.60;9.40;;;;;;;6.04;85.34;101314.46;104812;1264;72865;-57
2023/04/08 08:52:54;;;;;;;11.80;9.80;;;;;;;6.10;85.73;101317.73;104797;1262;69115;-57
2023/04/08 08:55:50;;;;;;;11.30;9.00;;;;;;;6.22;85.60;101320.64;105038;1265;69211;-58
2023/04/08 08:58:51;;;;;;;12.10;9.00;;;;;;;6.37;85.24;101321.09;105036;1263;74296;-58
2023/04/08 09:01:53;;;;;;;12.70;9.40;;;;;;;6.49;85.06;101323.45;104724;1265;82404;-58
2023/04/08 09:04:41;;;;;;;12.90;9.20;;;;;;;6.58;84.46;101321.49;104659;1265;72707;-52
2023/04/08 09:07:45;;;;;;;14.10;9.10;;;;;;;6.63;84.19;101326.85;104649;1262;69181;-56
2023/04/08 09:10:30;;;;;;;13.00;10.10;;;;;;;6.65;84.12;101329.62;104585;1265;68986;-52
2023/04/08 09:13:19;;;;;;;14.00;11.00;;;;;;;6.67;84.36;101332.04;104689;1263;74112;-56
2023/04/08 09:16:26;;;;;;;;;;;;;;;;;;;;;
2023/04/08 09:19:22;;;;;;;12.00;10.00;;;;;;;6.91;84.34;101341.61;104681;1262;73708;-54
2023/04/08 09:22:36;;;;;;;15.90;12.40;;;;;;;7.04;84.05;101343.61;104771;1262;69890;-58
2023/04/08 09:25:31;;;;;;;14.70;11.30;;;;;;;7.10;83.35;101341.29;104567;1271;69180;-52
2023/04/08 09:28:30;;;;;;;14.00;10.40;;;;;;;7.12;83.53;101345.80;104670;1266;74108;-53
2023/04/08 09:31:25;;;;;;;15.20;11.20;;;;;;;7.09;82.86;101354.00;104616;1271;83982;-60
2023/04/08 09:34:20;;;;;;;13.10;10.50;;;;;;;7.09;83.10;101359.73;104720;1271;73732;-53
2023/04/08 09:37:17;;;;;;;10.70;8.60;;;;;;;7.17;82.90;101365.23;104842;1266;69285;-53
2023/04/08 09:40:14;;;;;;;11.40;8.90;;;;;;;7.22;83.00;101365.89;104583;1270;69221;-51
2023/04/08 09:42:57;;;;;;;15.10;9.90;;;;;;;7.25;82.82;101371.09;104563;1271;73975;-50
2023/04/08 09:45:49;;;;;;;16.10;10.40;;;;;;;7.22;81.91;101374.92;104514;1270;82605;-53
2023/04/08 09:48:25;;;;;;;12.20;9.90;;;;;;;7.21;82.28;101377.55;104543;1267;72883;-54
2023/04/08 09:51:01;;;;;;;11.30;9.10;;;;;;;7.22;81.84;101378.39;104462;1273;69389;-51
2023/04/08 09:53:40;;;;;;;12.50;9.70;;;;;;;7.23;82.04;101382.73;104610;1272;69232;-55
2023/04/08 09:56:21;;;;;;;11.70;9.60;;;;;;;7.30;82.00;101380.79;104714;1272;73243;-53
2023/04/08 09:59:10;;;;;;;11.60;8.80;;;;;;;7.44;82.64;101379.62;104628;1272;83457;-52
2023/04/08 10:01:55;;;;;;;10.80;8.90;;;;;;;7.56;81.91;101376.73;104846;1263;72844;-55
2023/04/08 10:04:34;;;;;;;11.20;9.20;;;;;;;7.62;81.48;101373.03;104964;1267;69276;-52
2023/04/08 10:07:11;;;;;;;13.50;8.50;;;;;;;7.62;81.55;101373.04;104789;1267;69125;-51
2023/04/08 10:09:54;;;;;;;8.90;7.60;;;;;;;7.61;81.07;101372.34;104846;1264;72173;-56
2023/04/08 10:12:43;;;;;;;10.10;8.60;;;;;;;7.59;80.56;101371.31;104871;1264;83130;-56
2023/04/08 10:15:47;;;;;;;10.50;8.20;;;;;;;7.52;80.40;101374.16;104926;1266;73581;-56
2023/04/08 10:18:43;;;;;;;9.70;8.00;;;;;;;7.55;80.68;101376.91;104888;1264;69211;-62
2023/04/08 10:21:47;;;;;;;9.10;7.30;;;;;;;7.58;80.55;101379.14;104743;1264;69183;-59
2023/04/08 10:24:29;;;;;;;10.80;8.20;;;;;;;7.62;79.96;101381.02;104848;1263;74153;-60
2023/04/08 10:27:39;;;;;;;11.00;8.00;;;;;;;7.76;80.86;101380.03;104832;1265;83226;-58
2023/04/08 10:30:34;;;;;;;11.00;8.10;;;;;;;8.02;80.82;101375.94;104840;1267;72968;-56
2023/04/08 10:33:33;;;;;;;10.40;7.10;;;;;;;8.29;80.87;101378.23;104832;1264;69249;-59
2023/04/08 10:36:30;;;;;;;9.30;6.80;;;;;;;8.55;81.02;101384.57;104857;1263;69104;-60
2023/04/08 10:39:13;;;;;;;8.10;6.70;;;;;;;8.66;79.90;101383.55;104577;1271;73549;-62
2023/04/08 10:42:08;;;;;;;9.40;7.10;;;;;;;8.72;79.94;101385.73;104522;1272;83986;-59
2023/04/08 10:44:50;;;;;;;8.80;7.40;;;;;;;8.77;79.37;101386.20;104443;1271;73705;-60
2023/04/08 10:47:48;;;;;;;;;;;;;;;;;;;;;
2023/04/08 10:50:49;;;;;;;12.70;10.10;;;;;;;8.67;77.92;101379.88;104671;1269;69210;-60
2023/04/08 10:53:41;;;;;;;12.60;9.70;;;;;;;8.76;78.22;101383.06;104639;1268;74120;-61
2023/04/08 10:56:32;;;;;;;10.90;8.30;;;;;;;8.95;78.58;101385.75;104532;1269;83443;-61
2023/04/08 10:59:18;;;;;;;8.90;7.10;;;;;;;8.94;77.58;101387.52;104756;1268;73256;-61
2023/04/08 11:02:15;;;;;;;8.50;7.00;;;;;;;8.96;77.74;101386.62;104659;1269;69314;-62
2023/04/08 11:04:57;;;;;;;9.80;7.60;;;;;;;9.06;77.62;101386.98;104836;1263;69369;-60
2023/04/08 11:07:44;;;;;;;9.30;7.50;;;;;;;9.14;77.31;101392.11;104555;1263;74310;-61
2023/04/08 11:10:30;;;;;;;10.50;7.80;;;;;;;9.15;77.27;101389.29;104707;1267;83428;-65
2023/04/08 11:13:17;;;;;;;9.10;7.40;;;;;;;9.22;76.75;101389.20;104717;1264;73898;-62
2023/04/08 11:15:55;;;;;;;8.10;7.00;;;;;;;9.28;76.97;101391.54;104766;1268;69289;-63
2023/04/08 11:18:37;;;;;;;9.20;7.80;;;;;;;9.36;76.53;101393.14;105022;1261;69176;-65
2023/04/08 11:21:26;;;;;;;10.00;8.10;;;;;;;9.31;75.87;101389.75;105030;1263;74390;-59
2023/04/08 11:24:15;;;;;;;9.10;7.50;;;;;;;9.23;75.67;101388.30;105069;1262;83482;-62
2023/04/08 11:26:58;;;;;;;9.80;8.00;;;;;;;9.18;75.47;101389.77;105010;1262;72846;-65
2023/04/08 11:29:47;;;;;;;10.30;8.40;;;;;;;9.11;75.69;101393.18;105020;1258;69177;-63
2023/04/08 11:32:32;;;;;;;10.40;8.90;;;;;;;9.06;75.40;101393.62;105038;1263;69193;-61
2023/04/08 11:35:32;;;;;;;10.10;8.20;;;;;;;8.98;75.57;101393.55;105193;1257;74009;-60
2023/04/08 11:38:26;;;;;;;10.20;8.50;;;;;;;8.87;75.59;101398.23;104997;1264;83244;-60
2023/04/08 11:41:26;;;;;;;9.70;8.50;;;;;;;8.83;75.96;101397.25;104963;1262;73720;-59
2023/04/08 11:44:05;;;;;;;10.80;9.50;;;;;;;8.81;75.71;101395.89;105132;1263;69123;-58
2023/04/08 11:47:06;;;;;;;10.50;8.90;;;;;;;8.77;75.50;101395.77;105002;1257;69250;-60
2023/04/08 11:50:04;;;;;;;10.80;8.60;;;;;;;8.76;75.32;101394.56;105081;1261;73887;-62
2023/04/08 11:53:37;;;;;;;13.60;9.50;;;;;;;8.84;75.24;101394.80;104959;1257;82524;-62
2023/04/08 11:56:49;;;;;;;12.20;9.10;;;;;;;8.94;75.56;101396.92;104343;1271;73616;-60
2023/04/08 11:59:35;;;;;;;11.90;10.30;;;;;;;9.00;75.60;101395.29;104381;1269;69236;-59
2023/04/08 12:02:24;;;;;;;11.60;9.60;;;;;;;9.02;75.60;101399.25;104493;1271;69331;-59
2023/04/08 12:05:07;;;;;;;10.40;8.70;;;;;;;9.04;75.41;101394.52;104492;1271;73815;-58
2023/04/08 12:07:49;;;;;;;12.20;9.30;;;;;;;9.03;75.18;101395.56;104397;1272;83458;-64
2023/04/08 12:10:43;;;;;;;12.20;9.50;;;;;;;9.03;75.26;101392.61;104422;1271;73918;-59
2023/04/08 12:13:26;;;;;;;11.70;9.40;;;;;;;9.05;75.23;101394.68;104289;1269;69213;-59
2023/04/08 12:16:11;;;;;;;12.00;10.20;;;;;;;9.11;75.28;101401.39;104295;1272;69297;-59
2023/04/08 12:18:50;;;;;;;16.90;12.30;;;;;;;9.23;75.12;101399.98;104368;1273;72008;-60
2023/04/08 12:21:33;;;;;;;22.10;15.90;;;;;;;9.36;75.33;101396.46;104369;1275;83057;-62
2023/04/08 12:24:14;;;;;;;17.90;13.80;;;;;;;9.61;75.47;101395.35;104449;1271;72791;-60
2023/04/08 12:26:55;;;;;;;16.30;12.80;;;;;;;9.93;75.28;101394.25;104358;1275;69257;-61
2023/04/08 12:29:35;;;;;;;15.30;12.70;;;;;;;10.23;74.99;101394.08;104463;1272;69311;-60
2023/04/08 12:32:10;;;;;;;14.80;11.80;;;;;;;10.54;74.36;101393.10;104654;1264;73261;-61
2023/04/08 12:34:50;;;;;;;14.40;12.60;;;;;;;10.89;74.35;101395.13;105058;1263;83141;-62
2023/04/08 12:37:21;;;;;;;15.90;13.00;;;;;;;11.25;74.23;101393.76;104879;1264;73750;-59
2023/04/08 12:39:58;;;;;;;19.60;14.50;;;;;;;11.57;73.34;101393.17;104939;1260;69188;-62
2023/04/08 12:42:30;;;;;;;16.70;13.80;;;;;;;11.87;73.18;101392.74;104975;1261;69091;-62
2023/04/08 12:45:04;;;;;;;27.20;19.30;;;;;;;12.15;72.83;101392.72;104925;1261;74104;-60
2023/04/08 12:47:41;;;;;;;17.90;14.60;;;;;;;12.23;71.96;101389.69;104806;1263;83371;-62
2023/04/08 12:50:16;;;;;;;15.00;13.20;;;;;;;12.21;71.07;101389.04;104906;1265;73132;-64
2023/04/08 12:52:47;;;;;;;26.40;20.60;;;;;;;12.39;71.38;101388.72;104999;1264;69233;-60
2023/04/08 12:55:18;;;;;;;17.90;14.60;;;;;;;12.77;71.21;101386.35;104753;1260;69111;-59
2023/04/08 12:57:56;;;;;;;16.50;13.70;;;;;;;12.82;70.38;101384.81;104954;1261;74662;-60
2023/04/08 13:00:27;;;;;;;14.80;12.00;;;;;;;12.83;69.97;101387.08;104838;1264;83224;-59
2023/04/08 13:02:59;;;;;;;14.40;12.50;;;;;;;12.74;68.58;101385.92;104960;1264;74013;-62
2023/04/08 13:05:31;;;;;;;16.90;13.50;;;;;;;12.88;68.52;101382.69;104966;1264;69152;-62
2023/04/08 13:08:10;;;;;;;13.60;12.20;;;;;;;13.38;68.49;101383.56;105032;1264;69147;-61
2023/04/08 13:10:42;;;;;;;15.10;12.50;;;;;;;13.93;68.49;101386.45;104923;1265;73158;-62
2023/04/08 13:13:13;;;;;;;12.90;11.60;;;;;;;14.52;68.53;101382.39;104903;1261;83439;-60
2023/04/08 13:15:44;;;;;;;13.80;12.30;;;;;;;14.69;67.29;101378.73;104981;1265;73997;-64
2023/04/08 13:18:13;;;;;;;13.70;11.90;;;;;;;14.77;66.31;101381.27;104966;1264;69141;-61
2023/04/08 13:20:44;;;;;;;13.50;12.10;;;;;;;14.77;65.61;101377.75;104962;1261;69079;-61
2023/04/08 13:23:14;;;;;;;13.50;12.20;;;;;;;15.04;65.61;101378.28;105020;1263;74384;-61
2023/04/08 13:25:45;;;;;;;14.80;13.10;;;;;;;15.15;64.80;101381.35;104919;1265;83616;-61
2023/04/08 13:28:14;;;;;;;16.70;13.20;;;;;;;15.16;64.58;101381.83;104975;1262;73486;-61
2023/04/08 13:30:45;;;;;;;13.30;11.90;;;;;;;14.89;63.53;101381.52;105069;1263;69200;-65
2023/04/08 13:33:16;;;;;;;12.20;11.00;;;;;;;14.41;63.05;101381.04;104993;1261;69273;-60
2023/04/08 13:35:47;;;;;;;12.30;11.00;;;;;;;13.89;62.71;101382.55;105010;1260;74221;-60
2023/04/08 13:38:24;;;;;;;13.10;10.70;;;;;;;13.39;62.72;101383.70;105018;1260;83486;-61
2023/04/08 13:40:56;;;;;;;13.10;11.10;;;;;;;13.06;62.75;101382.30;104686;1261;358724;-61
2023/04/08 13:43:26;;;;;;;19.00;11.20;;;;;;;13.14;63.72;101380.98;105178;1257;69206;-61
2023/04/08 13:45:55;;;;;;;12.70;11.40;;;;;;;13.60;63.88;101377.91;105095;1263;69194;-60
2023/04/08 13:48:24;;;;;;;14.90;13.30;;;;;;;14.04;63.32;101372.52;105047;1263;74130;-62
2023/04/08 13:50:55;;;;;;;12.60;11.10;;;;;;;14.51;63.22;101368.16;105035;1263;83392;-62
2023/04/08 13:53:24;;;;;;;11.30;10.20;;;;;;;15.01;62.80;101369.23;105045;1258;73646;-62
2023/04/08 13:55:54;;;;;;;11.40;10.30;;;;;;;15.48;61.75;101367.30;105044;1258;69187;-61
2023/04/08 13:58:23;;;;;;;12.50;11.20;;;;;;;15.92;61.12;101364.22;105021;1264;69393;-63
2023/04/08 14:00:54;;;;;;;11.40;10.20;;;;;;;16.50;61.22;101368.30;105012;1258;74032;-63
2023/04/08 14:03:22;;;;;;;12.70;11.10;;;;;;;16.81;60.57;101367.91;105058;1257;83568;-61
2023/04/08 14:05:51;;;;;;;12.40;11.20;;;;;;;17.05;59.51;101369.42;105035;1263;73682;-62
2023/04/08 14:08:25;;;;;;;12.70;11.50;;;;;;;16.91;58.98;101370.65;105056;1261;69232;-61
2023/04/08 14:10:57;;;;;;;15.90;14.30;;;;;;;17.10;58.55;101366.36;104965;1258;69215;-60
2023/04/08 14:13:25;;;;;;;13.60;12.30;;;;;;;17.36;58.46;101365.28;104965;1257;73943;-65
2023/04/08 14:15:57;;;;;;;39.70;32.60;;;;;;;17.54;57.47;101364.17;105027;1260;83987;-65
2023/04/08 14:18:26;;;;;;;13.40;12.10;;;;;;;17.36;56.64;101364.89;105043;1261;73912;-62
2023/04/08 14:20:55;;;;;;;13.20;11.90;;;;;;;17.05;56.63;101368.90;105038;1261;69109;-62
2023/04/08 14:23:23;;;;;;;12.80;11.50;;;;;;;16.76;56.30;101369.59;105082;1258;69141;-60
2023/04/08 14:25:52;;;;;;;12.00;10.80;;;;;;;16.38;55.85;101364.77;105236;1257;73639;-62
2023/04/08 14:28:20;;;;;;;13.30;12.00;;;;;;;15.87;55.83;101365.66;105303;1261;83288;-63
2023/04/08 14:30:48;;;;;;;21.80;19.60;;;;;;;15.50;55.91;101367.39;105045;1260;74009;-59
2023/04/08 14:33:17;;;;;;;14.00;12.50;;;;;;;15.34;56.08;101366.47;105060;1256;69117;-61
2023/04/08 14:35:46;;;;;;;13.10;11.80;;;;;;;15.26;56.25;101363.63;105144;1257;69224;-62
2023/04/08 14:38:15;;;;;;;13.40;12.10;;;;;;;15.07;56.21;101363.17;105154;1257;74179;-62
2023/04/08 14:40:43;;;;;;;13.90;12.50;;;;;;;14.68;55.68;101363.98;105100;1260;83443;-58
2023/04/08 14:43:12;;;;;;;15.50;14.00;;;;;;;14.24;55.79;101368.63;105078;1257;73934;-61
2023/04/08 14:45:41;;;;;;;12.90;11.40;;;;;;;13.90;56.04;101364.77;104995;1257;69082;-61
2023/04/08 14:48:10;;;;;;;12.30;11.00;;;;;;;13.97;56.78;101368.40;105041;1260;69310;-60
2023/04/08 14:50:38;;;;;;;12.60;11.20;;;;;;;14.33;56.74;101366.53;105142;1258;74268;-61
2023/04/08 14:53:07;;;;;;;14.80;12.00;;;;;;;14.74;57.03;101371.52;105098;1260;83303;-60
2023/04/08 14:55:35;;;;;;;12.50;11.30;;;;;;;15.33;56.65;101369.70;105050;1257;73515;-62
2023/04/08 14:58:04;;;;;;;12.80;11.50;;;;;;;15.67;55.64;101368.63;105200;1257;69189;-59
2023/04/08 15:00:32;;;;;;;12.50;11.30;;;;;;;15.95;55.25;101366.39;105138;1260;69214;-60
2023/04/08 15:03:01;;;;;;;12.80;11.60;;;;;;;16.18;54.48;101369.56;105200;1257;73819;-62
2023/04/08 15:05:30;;;;;;;14.00;11.90;;;;;;;16.51;54.32;101364.72;105079;1257;83391;-60
2023/04/08 15:07:58;;;;;;;14.40;12.90;;;;;;;16.98;54.21;101367.67;105110;1260;73907;-61
2023/04/08 15:10:26;;;;;;;13.60;12.20;;;;;;;17.40;53.69;101365.05;105017;1258;69108;-60
2023/04/08 15:12:55;;;;;;;17.20;15.30;;;;;;;17.81;53.17;101366.19;105027;1256;69210;-62